West Park, New York
Current Conditions -  °F | °C
As of 3:53 AM on Sunday 26 Oct 2014 (Local Time) from KPOU Reporting Station
Broken Clouds Broken Clouds  
Wind Chill: 49°   Ceiling: 12000
Heat Index: 49°   Visibility: 10mi
Dew Point: 45°   Wind: 3mph
Humidity: 86%   Direction: 200°SSW
Pressure: 29.56"   Gusts: NA
Location:  41.79°N, 73.96°W
Report Text: KPOU 260753Z AUTO 20003KT 10SM FEW055 SCT070 BKN120 09/07 A2956 RMK AO2 PK WND 28033/0702 WSHFT 0700 RAB02E47 SLP005 P0003 T00940072 TSNO
Loading
Personal Weather Stations






























Interactive Weather Map
Tropical Storm Tracking
New forecast layout! Learn more

10-Day Weather Forecast

Advertisements
Track Severe Weather on mobile